Terminal Aerodrome Forecast
Issued by NWS

Home | Current Version | Previous Version | Text Only | Print | Product List | Glossary On
Versions: 1 2 3 4 5 6 7 8 9 10 11 12 13 14 15 16 17 18 19 20 21
000
FTUS43 KTOP 191100
TAFFOE
TAF
KFOE 191120Z 1912/2012 VRB02KT 5SM BR OVC004
     FM191600 15003KT 6SM BR OVC007
     FM192000 18005KT 6SM BR OVC011
     FM200200 18004KT 5SM BR OVC006=

USA.gov is the U.S. government's official web portal to all federal, state and local government web resources and services.